Time;durP1;ratioP1;P1;durP2;ratioP2;P2;SDS_P1;SDS_P2;PMS_P1;PMS_P2;Temp;Humidity;BMP_temperature;BMP_pressure;BME280_temperature;BME280_humidity;BME280_pressure;Samples;Min_cycle;Max_cycle;Signal;HPM_P1;HPM_P2
2022/03/05 00:01:00;;;;;;;35.83;24.27;;;;;;;;;;5055392;28;20048;-68
2022/03/05 00:03:25;;;;;;;36.22;22.42;;;;;;;;;;5037394;28;20029;-68
2022/03/05 00:05:51;;;;;;;36.45;21.80;;;;;;;;;;5055340;28;20037;-68
2022/03/05 00:08:16;;;;;;;42.00;24.80;;;;;;;;;;5055163;28;20029;-61
2022/03/05 00:10:42;;;;;;;30.52;20.77;;;;;;;;;;5055135;28;20120;-61
2022/03/05 00:13:08;;;;;;;25.52;19.13;;;;;;;;;;5055552;28;20025;-61
2022/03/05 00:15:34;;;;;;;30.35;20.98;;;;;;;;;;5033465;28;20367;-61
2022/03/05 00:18:00;;;;;;;30.50;21.00;;;;;;;;;;5035279;28;20048;-61
2022/03/05 00:20:26;;;;;;;34.08;21.55;;;;;;;;;;5035109;28;20099;-69
2022/03/05 00:22:54;;;;;;;36.70;23.25;;;;;;;;;;5035308;28;20034;-69
2022/03/05 00:25:26;;;;;;;41.38;25.45;;;;;;;;;;5033893;28;20556;-68
2022/03/05 00:27:53;;;;;;;37.72;23.80;;;;;;;;;;5035004;28;20045;-68
2022/03/05 00:30:21;;;;;;;36.03;23.95;;;;;;;;;;5034906;28;20036;-68
2022/03/05 00:32:48;;;;;;;48.83;32.28;;;;;;;;;;5033343;28;20029;-61
2022/03/05 00:35:13;;;;;;;41.55;26.95;;;;;;;;;;5035365;28;20025;-61
2022/03/05 00:37:39;;;;;;;48.45;31.38;;;;;;;;;;5035049;28;20044;-68
2022/03/05 00:40:05;;;;;;;32.20;23.15;;;;;;;;;;5034763;28;20037;-68
2022/03/05 00:42:34;;;;;;;37.70;24.85;;;;;;;;;;5034649;28;20417;-68
2022/03/05 00:44:59;;;;;;;35.25;22.27;;;;;;;;;;5034620;28;20108;-67
2022/03/05 00:47:25;;;;;;;31.92;22.30;;;;;;;;;;5034354;28;20036;-68
2022/03/05 00:49:50;;;;;;;31.05;22.13;;;;;;;;;;5034582;28;20100;-68
2022/03/05 00:52:16;;;;;;;35.00;23.92;;;;;;;;;;5016632;28;20033;-68
2022/03/05 00:54:42;;;;;;;33.65;23.08;;;;;;;;;;5034390;28;20030;-69
2022/03/05 00:57:07;;;;;;;33.92;24.48;;;;;;;;;;5034211;28;20054;-68
2022/03/05 00:59:33;;;;;;;32.35;23.77;;;;;;;;;;5034137;28;20044;-68
2022/03/05 01:01:58;;;;;;;32.42;23.60;;;;;;;;;;5034492;28;20057;-68
2022/03/05 01:04:24;;;;;;;29.67;21.63;;;;;;;;;;5033014;28;20593;-69
2022/03/05 01:06:49;;;;;;;35.13;23.58;;;;;;;;;;5034026;28;20048;-68
2022/03/05 01:09:14;;;;;;;34.33;22.27;;;;;;;;;;5034239;28;20081;-68
2022/03/05 01:11:40;;;;;;;34.00;22.65;;;;;;;;;;5034109;28;20033;-60
2022/03/05 01:14:10;;;;;;;33.17;22.15;;;;;;;;;;5034159;28;20473;-68
2022/03/05 01:16:36;;;;;;;33.45;22.85;;;;;;;;;;5053220;28;20400;-61
2022/03/05 01:19:02;;;;;;;30.95;21.77;;;;;;;;;;5035971;28;20045;-61
2022/03/05 01:21:27;;;;;;;32.45;21.98;;;;;;;;;;5053994;28;20075;-62
2022/03/05 01:23:53;;;;;;;29.90;21.83;;;;;;;;;;5053848;28;20437;-62
2022/03/05 01:26:19;;;;;;;31.65;22.60;;;;;;;;;;5053551;28;20420;-61
2022/03/05 01:28:44;;;;;;;29.83;20.90;;;;;;;;;;5053846;28;20091;-61
2022/03/05 01:31:10;;;;;;;30.23;21.45;;;;;;;;;;5036073;28;20491;-61
2022/03/05 01:33:36;;;;;;;29.63;21.45;;;;;;;;;;5053717;28;20033;-61
2022/03/05 01:36:01;;;;;;;29.63;22.15;;;;;;;;;;5053621;28;20029;-61
2022/03/05 01:38:27;;;;;;;29.42;19.70;;;;;;;;;;5053664;28;20036;-63
2022/03/05 01:40:52;;;;;;;26.23;18.40;;;;;;;;;;5053475;28;20040;-62
2022/03/05 01:43:18;;;;;;;24.77;18.42;;;;;;;;;;5035894;28;20043;-69
2022/03/05 01:45:44;;;;;;;26.73;18.17;;;;;;;;;;5035813;28;20040;-68
2022/03/05 01:48:09;;;;;;;25.73;18.17;;;;;;;;;;5053680;28;20112;-69
2022/03/05 01:50:35;;;;;;;28.38;19.02;;;;;;;;;;5053506;28;20029;-69
2022/03/05 01:53:01;;;;;;;25.88;17.63;;;;;;;;;;5053293;28;20013;-68
2022/03/05 01:55:26;;;;;;;27.98;19.33;;;;;;;;;;5053294;28;20124;-68
2022/03/05 01:57:52;;;;;;;24.30;18.02;;;;;;;;;;5053196;28;20080;-68
2022/03/05 02:00:19;;;;;;;28.00;19.27;;;;;;;;;;5053563;28;20041;-61
2022/03/05 02:02:47;;;;;;;29.00;18.95;;;;;;;;;;5053487;28;20056;-61
2022/03/05 02:05:13;;;;;;;25.60;17.92;;;;;;;;;;5053183;28;20037;-61
2022/03/05 02:07:40;;;;;;;26.20;18.02;;;;;;;;;;5035389;28;20037;-61
2022/03/05 02:10:08;;;;;;;23.20;17.38;;;;;;;;;;5034757;28;20420;-62
2022/03/05 02:12:34;;;;;;;22.52;17.48;;;;;;;;;;5053215;28;20032;-68
2022/03/05 02:15:01;;;;;;;22.65;16.83;;;;;;;;;;5031499;28;20401;-63
2022/03/05 02:17:27;;;;;;;23.08;16.83;;;;;;;;;;5033384;28;20041;-61
2022/03/05 02:19:53;;;;;;;23.75;17.25;;;;;;;;;;5032166;28;20460;-61
2022/03/05 02:22:18;;;;;;;25.23;17.70;;;;;;;;;;5032958;28;20080;-61
2022/03/05 02:24:44;;;;;;;24.50;16.75;;;;;;;;;;5033322;28;20061;-63
2022/03/05 02:27:10;;;;;;;24.40;17.00;;;;;;;;;;5033184;28;20017;-68
2022/03/05 02:29:36;;;;;;;20.50;16.20;;;;;;;;;;5033132;28;20045;-63
2022/03/05 02:32:02;;;;;;;22.35;16.42;;;;;;;;;;5032030;28;20084;-62
2022/03/05 02:34:28;;;;;;;22.25;16.35;;;;;;;;;;5031768;28;20128;-62
2022/03/05 02:36:54;;;;;;;23.20;16.13;;;;;;;;;;5033187;28;20370;-62
2022/03/05 02:39:23;;;;;;;19.92;15.38;;;;;;;;;;5032961;28;20037;-62
2022/03/05 02:41:49;;;;;;;22.02;15.77;;;;;;;;;;5032891;28;20481;-61
2022/03/05 02:44:14;;;;;;;21.45;16.13;;;;;;;;;;5033188;28;20179;-61
2022/03/05 02:46:41;;;;;;;21.83;15.15;;;;;;;;;;5033132;28;20038;-61
2022/03/05 02:49:06;;;;;;;20.27;15.05;;;;;;;;;;5031687;28;20123;-61
2022/03/05 02:51:32;;;;;;;19.30;14.32;;;;;;;;;;5031904;28;20084;-61
2022/03/05 02:53:57;;;;;;;20.77;14.45;;;;;;;;;;5032977;28;20107;-61
2022/03/05 02:56:23;;;;;;;21.55;14.90;;;;;;;;;;5033249;28;20022;-67
2022/03/05 02:58:48;;;;;;;19.15;14.27;;;;;;;;;;5033034;28;20070;-68
2022/03/05 03:01:14;;;;;;;19.55;14.13;;;;;;;;;;5033085;28;20033;-69
2022/03/05 03:03:40;;;;;;;22.48;14.88;;;;;;;;;;5033133;28;20041;-68
2022/03/05 03:06:08;;;;;;;17.08;13.15;;;;;;;;;;5033018;28;20061;-67
2022/03/05 03:08:34;;;;;;;19.95;13.88;;;;;;;;;;5033008;28;20496;-67
2022/03/05 03:11:00;;;;;;;18.30;13.63;;;;;;;;;;5032901;28;20025;-67
2022/03/05 03:13:25;;;;;;;19.60;13.18;;;;;;;;;;5032819;28;20374;-67
2022/03/05 03:15:51;;;;;;;19.63;13.95;;;;;;;;;;5045262;28;20507;-67
2022/03/05 03:18:17;;;;;;;21.10;14.60;;;;;;;;;;5052636;28;20068;-67
2022/03/05 03:20:44;;;;;;;19.55;14.23;;;;;;;;;;5052720;28;20060;-62
2022/03/05 03:23:09;;;;;;;22.33;14.70;;;;;;;;;;5055921;28;20041;-67
2022/03/05 03:25:35;;;;;;;19.05;14.20;;;;;;;;;;5056300;28;20037;-67
2022/03/05 03:28:01;;;;;;;20.30;15.60;;;;;;;;;;5056556;28;20033;-68
2022/03/05 03:30:26;;;;;;;21.95;15.98;;;;;;;;;;5056463;28;20032;-68
2022/03/05 03:32:52;;;;;;;18.52;13.63;;;;;;;;;;5038364;28;20039;-68
2022/03/05 03:35:17;;;;;;;19.92;14.25;;;;;;;;;;5056124;28;20054;-68
2022/03/05 03:37:44;;;;;;;20.70;14.30;;;;;;;;;;5056102;28;20045;-68
2022/03/05 03:40:11;;;;;;;21.42;14.07;;;;;;;;;;5055882;28;20029;-68
2022/03/05 03:42:37;;;;;;;19.90;13.65;;;;;;;;;;5055983;28;20041;-68
2022/03/05 03:45:03;;;;;;;18.17;13.55;;;;;;;;;;5055860;28;20087;-67
2022/03/05 03:47:29;;;;;;;18.98;14.27;;;;;;;;;;5055644;28;20065;-67
2022/03/05 03:49:54;;;;;;;19.10;13.30;;;;;;;;;;5037960;28;20032;-67
2022/03/05 03:52:20;;;;;;;17.65;13.10;;;;;;;;;;5055648;28;20503;-69
2022/03/05 03:54:47;;;;;;;21.45;13.63;;;;;;;;;;5055604;28;20036;-71
2022/03/05 03:57:13;;;;;;;17.63;13.07;;;;;;;;;;5055743;28;20087;-69
2022/03/05 03:59:38;;;;;;;17.88;13.15;;;;;;;;;;5055690;28;20025;-61
2022/03/05 04:02:05;;;;;;;17.65;13.20;;;;;;;;;;5055544;28;20579;-61
2022/03/05 04:04:30;;;;;;;21.70;13.63;;;;;;;;;;5055535;28;20028;-61
2022/03/05 04:09:47;;;;;;;17.13;12.43;;;;;;;;;;5039013;28;20053;-62
2022/03/05 04:12:13;;;;;;;19.30;11.77;;;;;;;;;;5055313;28;20029;-61
2022/03/05 04:14:38;;;;;;;17.55;13.07;;;;;;;;;;5055275;28;20234;-69
2022/03/05 04:17:05;;;;;;;26.15;15.68;;;;;;;;;;5055200;28;20045;-69
2022/03/05 04:19:30;;;;;;;17.75;13.80;;;;;;;;;;5055206;28;20059;-69
2022/03/05 04:21:55;;;;;;;16.98;13.48;;;;;;;;;;5055144;28;20502;-69
2022/03/05 04:24:21;;;;;;;27.48;19.83;;;;;;;;;;5055053;28;20037;-67
2022/03/05 04:26:46;;;;;;;40.13;29.35;;;;;;;;;;5054930;28;20502;-68
2022/03/05 04:29:13;;;;;;;22.80;17.90;;;;;;;;;;5054955;28;20124;-68
2022/03/05 04:31:38;;;;;;;16.63;12.38;;;;;;;;;;5054795;28;20108;-68
2022/03/05 04:34:04;;;;;;;16.20;11.98;;;;;;;;;;5036653;28;20029;-68
2022/03/05 04:36:29;;;;;;;16.98;12.57;;;;;;;;;;5036868;28;20092;-68
2022/03/05 04:38:55;;;;;;;15.35;11.88;;;;;;;;;;5054960;28;20091;-68
2022/03/05 04:41:20;;;;;;;15.27;11.35;;;;;;;;;;5054510;28;20025;-68
2022/03/05 04:43:47;;;;;;;27.33;22.42;;;;;;;;;;5036822;28;20512;-68
2022/03/05 04:46:12;;;;;;;27.50;23.80;;;;;;;;;;5054698;28;20036;-68
2022/03/05 04:48:38;;;;;;;22.13;17.45;;;;;;;;;;5054782;28;20036;-68
2022/03/05 04:51:03;;;;;;;23.52;19.42;;;;;;;;;;5020071;28;20025;-68
2022/03/05 04:53:28;;;;;;;20.77;17.40;;;;;;;;;;5054641;28;20064;-68
2022/03/05 04:55:54;;;;;;;19.73;16.77;;;;;;;;;;5054686;28;20036;-68
2022/03/05 04:58:21;;;;;;;18.42;15.57;;;;;;;;;;5054234;28;20476;-68
2022/03/05 05:00:47;;;;;;;16.90;14.23;;;;;;;;;;5053655;28;20048;-68
2022/03/05 05:03:13;;;;;;;14.93;11.98;;;;;;;;;;5054409;28;20043;-69
2022/03/05 05:05:38;;;;;;;17.77;13.50;;;;;;;;;;5036197;28;20021;-68
2022/03/05 05:08:04;;;;;;;16.17;13.38;;;;;;;;;;5054066;28;20051;-68
2022/03/05 05:10:30;;;;;;;18.60;13.45;;;;;;;;;;5054251;28;20071;-68
2022/03/05 05:12:56;;;;;;;25.85;18.60;;;;;;;;;;5053593;28;20404;-69
2022/03/05 05:15:21;;;;;;;56.47;35.58;;;;;;;;;;5031953;28;20049;-69
2022/03/05 05:17:48;;;;;;;51.05;32.50;;;;;;;;;;5033473;28;20053;-69
2022/03/05 05:20:13;;;;;;;36.97;26.17;;;;;;;;;;5033823;28;20045;-69
2022/03/05 05:22:39;;;;;;;32.17;24.55;;;;;;;;;;5032563;28;20095;-70
2022/03/05 05:25:05;;;;;;;74.45;41.20;;;;;;;;;;5034063;28;20034;-69
2022/03/05 05:27:35;;;;;;;178.02;65.25;;;;;;;;;;5033956;28;20042;-69
2022/03/05 05:30:00;;;;;;;182.75;70.50;;;;;;;;;;5033870;28;20060;-68
2022/03/05 05:32:26;;;;;;;100.07;45.65;;;;;;;;;;5033780;28;20090;-68
2022/03/05 05:34:51;;;;;;;94.13;43.40;;;;;;;;;;5032564;28;20017;-69
2022/03/05 05:37:17;;;;;;;38.33;23.65;;;;;;;;;;5032598;28;20048;-68
2022/03/05 05:39:42;;;;;;;29.63;19.08;;;;;;;;;;5033951;28;20048;-68
2022/03/05 05:42:08;;;;;;;32.22;22.88;;;;;;;;;;5033943;28;20045;-69
2022/03/05 05:44:33;;;;;;;22.63;16.33;;;;;;;;;;5033784;28;20036;-69
2022/03/05 05:46:59;;;;;;;19.42;13.90;;;;;;;;;;5033125;28;20037;-61
2022/03/05 05:49:24;;;;;;;16.05;12.68;;;;;;;;;;5032171;28;20109;-61
2022/03/05 05:51:50;;;;;;;15.93;12.27;;;;;;;;;;5033537;28;20087;-61
2022/03/05 05:54:15;;;;;;;17.67;13.30;;;;;;;;;;5033617;28;20029;-61
2022/03/05 05:56:41;;;;;;;24.20;17.42;;;;;;;;;;5033484;28;20041;-61
2022/03/05 05:59:06;;;;;;;244.88;160.73;;;;;;;;;;5033988;28;20389;-61
2022/03/05 06:01:32;;;;;;;62.92;44.50;;;;;;;;;;5033142;28;20045;-61
2022/03/05 06:03:58;;;;;;;65.22;45.03;;;;;;;;;;5033431;28;20095;-62
2022/03/05 06:06:23;;;;;;;49.78;32.55;;;;;;;;;;5033132;28;20140;-61
2022/03/05 06:08:49;;;;;;;52.80;34.88;;;;;;;;;;5033198;28;20053;-60
2022/03/05 06:11:14;;;;;;;39.75;26.15;;;;;;;;;;5033431;28;20060;-69
2022/03/05 06:13:40;;;;;;;35.15;25.05;;;;;;;;;;5032000;28;20025;-68
2022/03/05 06:16:06;;;;;;;29.60;20.90;;;;;;;;;;5047284;28;20068;-68
2022/03/05 06:18:32;;;;;;;31.83;21.92;;;;;;;;;;5053036;28;20043;-68
2022/03/05 06:20:58;;;;;;;29.92;22.63;;;;;;;;;;5052837;28;20395;-68
2022/03/05 06:23:23;;;;;;;31.85;22.90;;;;;;;;;;5052993;28;20036;-68
2022/03/05 06:25:49;;;;;;;50.22;29.92;;;;;;;;;;5053370;28;20120;-68
2022/03/05 06:28:15;;;;;;;39.58;24.23;;;;;;;;;;5052981;28;20393;-68
2022/03/05 06:30:40;;;;;;;22.15;15.32;;;;;;;;;;5053067;28;20029;-68
2022/03/05 06:33:06;;;;;;;18.92;14.45;;;;;;;;;;5053084;28;20040;-68
2022/03/05 06:35:31;;;;;;;24.98;17.80;;;;;;;;;;5053053;28;20396;-68
2022/03/05 06:37:57;;;;;;;22.45;16.02;;;;;;;;;;5053010;28;20036;-69
2022/03/05 06:40:22;;;;;;;33.17;22.70;;;;;;;;;;5052774;28;20033;-69
2022/03/05 06:42:48;;;;;;;23.08;17.48;;;;;;;;;;5052900;28;20044;-68
2022/03/05 06:45:13;;;;;;;70.72;41.47;;;;;;;;;;5051291;28;20530;-68
2022/03/05 06:47:39;;;;;;;66.35;53.63;;;;;;;;;;5051187;28;20052;-69
2022/03/05 06:50:06;;;;;;;24.23;20.85;;;;;;;;;;5034550;28;20029;-68
2022/03/05 06:52:31;;;;;;;26.00;22.65;;;;;;;;;;5049311;28;20060;-68
2022/03/05 06:54:57;;;;;;;18.10;14.50;;;;;;;;;;5053049;28;20060;-68
2022/03/05 06:57:23;;;;;;;22.02;16.90;;;;;;;;;;5053797;28;20029;-69
2022/03/05 07:03:23;;;;;;;38.38;32.40;;;;;;;;;;5057152;28;20043;-68
2022/03/05 07:09:24;;;;;;;27.08;23.98;;;;;;;;;;5056964;28;20020;-68
2022/03/05 07:22:35;;;;;;;17.40;13.38;;;;;;;;;;5056451;28;20023;-68
2022/03/05 07:28:35;;;;;;;19.02;16.95;;;;;;;;;;5056627;28;20083;-69
2022/03/05 07:34:35;;;;;;;79.88;61.05;;;;;;;;;;5056499;28;20027;-69
2022/03/05 07:40:36;;;;;;;252.55;177.93;;;;;;;;;;5056369;28;20039;-69
2022/03/05 07:46:37;;;;;;;41.83;36.30;;;;;;;;;;5056012;28;20070;-67
2022/03/05 07:52:37;;;;;;;14.82;12.63;;;;;;;;;;5056169;28;20044;-67
2022/03/05 07:58:38;;;;;;;32.00;24.52;;;;;;;;;;5056008;28;20044;-67
2022/03/05 08:04:39;;;;;;;28.35;18.13;;;;;;;;;;5055924;28;20142;-67
2022/03/05 08:14:42;;;;;;;50.78;29.85;;;;;;;;;;5055470;28;20107;-67
2022/03/05 08:20:55;;;;;;;11.80;8.52;;;;;;;;;;5055640;28;20119;-66
2022/03/05 08:26:56;;;;;;;69.93;43.38;;;;;;;;;;5055254;28;20036;-66
2022/03/05 08:32:57;;;;;;;21.67;17.05;;;;;;;;;;5055422;28;20147;-66
2022/03/05 08:38:59;;;;;;;37.45;23.70;;;;;;;;;;5055301;28;20031;-64
2022/03/05 08:44:59;;;;;;;9.60;8.60;;;;;;;;;;5055100;28;20028;-67
2022/03/05 08:51:00;;;;;;;9.48;8.18;;;;;;;;;;5054808;28;20036;-66
2022/03/05 08:57:02;;;;;;;14.07;10.60;;;;;;;;;;5054942;28;20087;-66
2022/03/05 09:03:02;;;;;;;268.00;205.23;;;;;;;;;;5054904;28;20063;-66
2022/03/05 09:09:04;;;;;;;13.80;12.38;;;;;;;;;;5054686;28;20435;-65
2022/03/05 09:25:43;;;;;;;12.57;7.43;;;;;;;;;;5054272;28;20087;-66
2022/03/05 09:31:43;;;;;;;19.92;15.40;;;;;;;;;;5054341;28;20503;-65
2022/03/05 09:37:43;;;;;;;27.40;16.45;;;;;;;;;;5054250;28;20036;-65
2022/03/05 09:43:44;;;;;;;30.85;25.13;;;;;;;;;;5054115;28;20031;-65
2022/03/05 09:53:43;;;;;;;9.48;8.40;;;;;;;;;;5053714;28;20032;-66
2022/03/05 09:59:44;;;;;;;8.85;6.78;;;;;;;;;;5053886;28;20157;-66
2022/03/05 10:05:45;;;;;;;53.40;31.00;;;;;;;;;;5053682;28;20036;-66
2022/03/05 10:11:45;;;;;;;52.80;33.38;;;;;;;;;;5053755;28;20028;-65
2022/03/05 10:21:09;;;;;;;144.30;65.15;;;;;;;;;;5053657;28;20036;-65
2022/03/05 10:27:10;;;;;;;36.17;10.40;;;;;;;;;;5053321;28;20460;-65
2022/03/05 10:29:37;;;;;;;17.63;7.93;;;;;;;;;;5052667;28;20069;-64
2022/03/05 10:32:06;;;;;;;5.35;4.85;;;;;;;;;;5053938;28;20022;-64
2022/03/05 10:34:41;;;;;;;29.10;19.70;;;;;;;;;;5056559;28;20488;-64
2022/03/05 10:37:06;;;;;;;60.28;36.17;;;;;;;;;;5056528;28;20128;-64
2022/03/05 10:39:32;;;;;;;109.22;54.85;;;;;;;;;;5038937;28;20512;-64
2022/03/05 10:41:57;;;;;;;56.90;32.28;;;;;;;;;;5056668;28;20404;-64
2022/03/05 10:44:23;;;;;;;39.65;23.08;;;;;;;;;;5056599;28;20033;-64
2022/03/05 10:46:54;;;;;;;55.90;32.25;;;;;;;;;;5055820;28;20056;-64
2022/03/05 10:49:25;;;;;;;55.85;37.08;;;;;;;;;;5038661;28;20037;-64
2022/03/05 10:51:52;;;;;;;325.73;174.55;;;;;;;;;;5056288;28;20090;-64
2022/03/05 10:54:27;;;;;;;47.53;27.75;;;;;;;;;;5056201;28;20028;-64
2022/03/05 10:56:54;;;;;;;44.05;28.35;;;;;;;;;;5056181;28;20037;-64
2022/03/05 10:59:22;;;;;;;66.88;45.88;;;;;;;;;;5056284;28;20033;-64
2022/03/05 11:01:47;;;;;;;32.47;25.48;;;;;;;;;;5056256;28;20048;-64
2022/03/05 11:04:13;;;;;;;150.27;88.07;;;;;;;;;;5038255;28;20025;-65
2022/03/05 11:06:39;;;;;;;16.70;14.98;;;;;;;;;;5055917;28;20037;-64
2022/03/05 11:09:06;;;;;;;34.05;24.98;;;;;;;;;;5055921;28;20515;-64
2022/03/05 11:11:34;;;;;;;27.83;21.90;;;;;;;;;;5038227;28;20033;-64
2022/03/05 11:14:00;;;;;;;78.80;43.42;;;;;;;;;;5055804;28;20025;-64
2022/03/05 11:16:26;;;;;;;25.48;17.77;;;;;;;;;;5055552;28;20045;-64
2022/03/05 11:18:52;;;;;;;21.77;17.90;;;;;;;;;;5056172;28;20477;-64
2022/03/05 11:21:17;;;;;;;16.35;11.88;;;;;;;;;;5055875;28;20053;-64
2022/03/05 11:23:44;;;;;;;18.25;11.98;;;;;;;;;;5055929;28;20044;-65
2022/03/05 11:26:09;;;;;;;22.80;17.63;;;;;;;;;;5055643;28;20095;-65
2022/03/05 11:28:36;;;;;;;16.33;12.95;;;;;;;;;;5055839;28;20033;-65
2022/03/05 11:31:05;;;;;;;10.73;8.77;;;;;;;;;;5055625;28;20031;-65
2022/03/05 11:33:35;;;;;;;20.85;18.27;;;;;;;;;;5055282;28;20040;-65
2022/03/05 11:36:07;;;;;;;11.27;9.32;;;;;;;;;;5055375;28;20025;-64
2022/03/05 11:38:39;;;;;;;6.43;4.40;;;;;;;;;;5055706;28;20507;-64
2022/03/05 11:41:05;;;;;;;7.05;6.35;;;;;;;;;;5055463;28;20040;-64
2022/03/05 11:43:39;;;;;;;9.60;8.63;;;;;;;;;;5055449;28;20366;-65
2022/03/05 11:46:05;;;;;;;16.25;14.57;;;;;;;;;;5037317;28;20041;-66
2022/03/05 11:48:31;;;;;;;15.68;11.25;;;;;;;;;;5055279;28;20436;-66
2022/03/05 11:51:06;;;;;;;11.85;8.57;;;;;;;;;;5055310;28;20060;-66
2022/03/05 11:53:32;;;;;;;43.20;23.08;;;;;;;;;;5055043;28;20032;-66
2022/03/05 11:56:17;;;;;;;31.85;17.75;;;;;;;;;;5054739;28;20425;-66
2022/03/05 11:58:43;;;;;;;9.32;8.02;;;;;;;;;;5037435;28;20037;-66
2022/03/05 12:01:28;;;;;;;23.10;14.00;;;;;;;;;;5055366;28;20082;-66
2022/03/05 12:03:54;;;;;;;180.07;69.68;;;;;;;;;;5055320;28;20033;-66
2022/03/05 12:06:19;;;;;;;44.88;21.05;;;;;;;;;;5054785;28;20040;-66
2022/03/05 12:08:52;;;;;;;39.53;22.48;;;;;;;;;;5054932;28;20086;-66
2022/03/05 12:11:18;;;;;;;86.75;42.22;;;;;;;;;;5055131;28;20547;-68
2022/03/05 12:13:45;;;;;;;31.95;11.30;;;;;;;;;;5036314;28;20405;-67
2022/03/05 12:16:14;;;;;;;10.85;6.88;;;;;;;;;;5055142;28;20082;-68
2022/03/05 12:18:41;;;;;;;6.80;4.45;;;;;;;;;;5037169;28;20059;-68
2022/03/05 12:21:06;;;;;;;7.30;6.25;;;;;;;;;;5055064;28;20091;-66
2022/03/05 12:23:32;;;;;;;84.35;40.78;;;;;;;;;;5054968;28;20032;-68
2022/03/05 12:26:01;;;;;;;10.23;4.95;;;;;;;;;;5054973;28;20045;-73
2022/03/05 12:28:31;;;;;;;56.17;27.50;;;;;;;;;;5037317;28;20041;-68
2022/03/05 12:30:58;;;;;;;34.63;21.23;;;;;;;;;;5054885;28;20068;-68
2022/03/05 12:33:24;;;;;;;64.15;34.85;;;;;;;;;;5036879;28;20025;-68
2022/03/05 12:35:50;;;;;;;21.30;14.27;;;;;;;;;;5054046;28;20029;-68
2022/03/05 12:38:19;;;;;;;79.80;46.63;;;;;;;;;;5054560;28;20040;-68
2022/03/05 12:40:44;;;;;;;127.70;84.22;;;;;;;;;;5054241;28;20045;-67
2022/03/05 12:43:10;;;;;;;95.10;60.10;;;;;;;;;;5036529;28;20131;-70
2022/03/05 12:45:40;;;;;;;29.15;21.77;;;;;;;;;;5030492;28;20037;-67
2022/03/05 12:48:19;;;;;;;14.80;12.75;;;;;;;;;;5035112;28;20045;-67
2022/03/05 12:50:46;;;;;;;2.88;2.67;;;;;;;;;;5054232;28;20066;-69
2022/03/05 12:53:18;;;;;;;13.48;11.98;;;;;;;;;;5054063;28;20025;-69
2022/03/05 12:55:45;;;;;;;11.52;8.32;;;;;;;;;;5051826;28;20481;-68
2022/03/05 12:58:29;;;;;;;11.40;8.35;;;;;;;;;;5054253;28;20032;-69
2022/03/05 13:01:00;;;;;;;21.77;15.70;;;;;;;;;;5054088;28;20029;-67
2022/03/05 13:03:26;;;;;;;4.55;4.18;;;;;;;;;;5054128;28;20087;-69
2022/03/05 13:05:52;;;;;;;23.77;17.95;;;;;;;;;;5053862;28;20033;-69
2022/03/05 13:08:18;;;;;;;18.42;13.27;;;;;;;;;;5053953;28;20533;-69
2022/03/05 13:10:44;;;;;;;7.05;6.35;;;;;;;;;;5035975;28;20033;-69
2022/03/05 13:13:11;;;;;;;35.95;27.70;;;;;;;;;;5053736;28;20120;-68
2022/03/05 13:15:36;;;;;;;23.17;15.18;;;;;;;;;;5053829;28;20067;-69
2022/03/05 13:18:05;;;;;;;12.43;8.65;;;;;;;;;;5053276;28;20072;-64
2022/03/05 13:20:30;;;;;;;10.85;6.88;;;;;;;;;;5053638;28;20408;-74
2022/03/05 13:22:56;;;;;;;65.82;25.58;;;;;;;;;;5035950;28;20048;-70
2022/03/05 13:25:21;;;;;;;30.27;16.20;;;;;;;;;;5053482;28;20075;-70
2022/03/05 13:27:47;;;;;;;22.92;12.70;;;;;;;;;;5053698;28;20064;-73
2022/03/05 13:30:17;;;;;;;37.72;23.55;;;;;;;;;;5053423;28;20017;-68
2022/03/05 13:32:43;;;;;;;32.33;13.98;;;;;;;;;;5053536;28;20029;-70
2022/03/05 13:35:09;;;;;;;42.15;26.58;;;;;;;;;;5053515;28;20033;-70
2022/03/05 13:37:36;;;;;;;20.90;16.58;;;;;;;;;;5053244;28;20094;-69
2022/03/05 13:40:02;;;;;;;48.17;31.27;;;;;;;;;;5053263;28;20603;-69
2022/03/05 13:42:31;;;;;;;26.40;16.02;;;;;;;;;;5053288;28;20037;-69
2022/03/05 13:44:58;;;;;;;53.10;33.83;;;;;;;;;;5053225;28;20028;-69
2022/03/05 13:47:25;;;;;;;30.00;16.83;;;;;;;;;;5053064;28;20063;-69
2022/03/05 13:49:51;;;;;;;19.33;11.00;;;;;;;;;;5053250;28;20100;-69
2022/03/05 13:52:20;;;;;;;23.02;13.05;;;;;;;;;;5053170;28;20136;-69
2022/03/05 13:54:50;;;;;;;133.82;54.47;;;;;;;;;;5052956;28;20041;-69
2022/03/05 13:57:29;;;;;;;15.07;10.13;;;;;;;;;;5053120;28;20025;-69
2022/03/05 13:59:54;;;;;;;540.70;146.60;;;;;;;;;;5035176;28;20041;-69
2022/03/05 14:02:19;;;;;;;9.82;7.40;;;;;;;;;;5053062;28;20035;-70
2022/03/05 14:04:58;;;;;;;1581.10;490.30;;;;;;;;;;5053035;28;20056;-69
2022/03/05 14:07:24;;;;;;;994.20;310.63;;;;;;;;;;5051285;28;20037;-69
2022/03/05 14:09:49;;;;;;;1999.90;718.83;;;;;;;;;;5052287;28;20115;-69
2022/03/05 14:12:19;;;;;;;170.15;56.72;;;;;;;;;;5052581;28;20033;-69
2022/03/05 14:14:48;;;;;;;29.15;18.10;;;;;;;;;;5052682;28;20052;-69
2022/03/05 14:17:23;;;;;;;1436.22;494.83;;;;;;;;;;5052304;28;20044;-69
2022/03/05 14:19:49;;;;;;;156.05;53.40;;;;;;;;;;5052440;28;20068;-69
2022/03/05 14:22:19;;;;;;;33.92;18.05;;;;;;;;;;5052351;28;20061;-69
2022/03/05 14:24:45;;;;;;;169.10;64.32;;;;;;;;;;5052728;28;20091;-67
2022/03/05 14:27:12;;;;;;;82.60;48.75;;;;;;;;;;5052670;28;20021;-69
2022/03/05 14:29:38;;;;;;;107.75;63.50;;;;;;;;;;5052623;28;20128;-69
2022/03/05 14:32:04;;;;;;;110.18;60.50;;;;;;;;;;5052561;28;20439;-68
2022/03/05 14:34:29;;;;;;;49.20;28.95;;;;;;;;;;5052700;28;20037;-67
2022/03/05 14:36:54;;;;;;;71.50;48.25;;;;;;;;;;5052683;28;20040;-69
2022/03/05 14:39:20;;;;;;;26.77;16.98;;;;;;;;;;5052298;28;20070;-69
2022/03/05 14:41:45;;;;;;;17.80;12.07;;;;;;;;;;5052317;28;20028;-67
2022/03/05 14:44:11;;;;;;;34.70;21.48;;;;;;;;;;5052537;28;20045;-69
2022/03/05 14:46:37;;;;;;;16.52;11.77;;;;;;;;;;5052444;28;20429;-69
2022/03/05 14:49:03;;;;;;;7.68;6.97;;;;;;;;;;5052489;28;20040;-69
2022/03/05 14:51:28;;;;;;;11.43;9.05;;;;;;;;;;5052335;28;20021;-68
2022/03/05 14:53:54;;;;;;;98.75;48.85;;;;;;;;;;5052493;28;20032;-69
2022/03/05 14:56:19;;;;;;;65.72;53.53;;;;;;;;;;5034508;28;20037;-70
2022/03/05 14:58:44;;;;;;;72.15;45.22;;;;;;;;;;5034432;28;20091;-69
2022/03/05 15:01:10;;;;;;;89.40;37.13;;;;;;;;;;5052126;28;20021;-69
2022/03/05 15:03:35;;;;;;;27.00;17.63;;;;;;;;;;5052298;28;20404;-69
2022/03/05 15:06:00;;;;;;;74.90;41.72;;;;;;;;;;5052270;28;20032;-68
2022/03/05 15:08:26;;;;;;;40.50;23.17;;;;;;;;;;5052399;28;20063;-67
2022/03/05 15:10:52;;;;;;;83.47;43.92;;;;;;;;;;5052299;28;20064;-69
2022/03/05 15:13:17;;;;;;;51.13;29.40;;;;;;;;;;5052177;28;20037;-67
2022/03/05 15:15:43;;;;;;;24.40;16.75;;;;;;;;;;5052314;28;20037;-69
2022/03/05 15:18:09;;;;;;;13.52;9.55;;;;;;;;;;5053532;28;20053;-69
2022/03/05 15:20:35;;;;;;;53.85;37.72;;;;;;;;;;5037567;28;20445;-69
2022/03/05 15:23:01;;;;;;;18.35;14.85;;;;;;;;;;5055605;28;20061;-69
2022/03/05 15:25:26;;;;;;;14.40;11.00;;;;;;;;;;5055663;28;20029;-69
2022/03/05 15:27:52;;;;;;;16.63;11.80;;;;;;;;;;5055854;28;20037;-69
2022/03/05 15:30:17;;;;;;;5.75;5.25;;;;;;;;;;5055661;28;20485;-69
2022/03/05 15:32:43;;;;;;;6.00;5.50;;;;;;;;;;5055529;28;20405;-69
2022/03/05 15:35:08;;;;;;;8.93;6.72;;;;;;;;;;5055599;28;20032;-69
2022/03/05 15:37:34;;;;;;;6.15;5.40;;;;;;;;;;5055657;28;20063;-69
2022/03/05 15:39:59;;;;;;;8.10;4.95;;;;;;;;;;5055355;28;20033;-69
2022/03/05 15:42:25;;;;;;;7.22;6.03;;;;;;;;;;5055296;28;20033;-69
2022/03/05 15:44:50;;;;;;;10.20;6.75;;;;;;;;;;5055403;28;20033;-69
2022/03/05 15:47:15;;;;;;;6.22;5.47;;;;;;;;;;5055380;28;20047;-69
2022/03/05 15:49:41;;;;;;;18.60;10.35;;;;;;;;;;5055252;28;20036;-69
2022/03/05 15:52:07;;;;;;;37.97;18.67;;;;;;;;;;5055216;28;20036;-69
2022/03/05 15:54:32;;;;;;;29.48;15.23;;;;;;;;;;5037532;28;20021;-67
2022/03/05 15:56:58;;;;;;;37.13;18.95;;;;;;;;;;5055429;28;20106;-69
2022/03/05 15:59:24;;;;;;;91.25;40.40;;;;;;;;;;5055006;28;20037;-70
2022/03/05 16:01:49;;;;;;;137.80;64.13;;;;;;;;;;5054865;28;20067;-69
2022/03/05 16:04:14;;;;;;;147.30;76.03;;;;;;;;;;5054970;28;20082;-69
2022/03/05 16:06:40;;;;;;;156.73;73.90;;;;;;;;;;5055023;28;20056;-69
2022/03/05 16:09:05;;;;;;;31.85;16.52;;;;;;;;;;5055073;28;20022;-69
2022/03/05 16:11:32;;;;;;;75.55;41.20;;;;;;;;;;5054945;28;20453;-69
2022/03/05 16:13:57;;;;;;;59.70;35.92;;;;;;;;;;5054639;28;20021;-69
2022/03/05 16:16:23;;;;;;;681.03;251.25;;;;;;;;;;5054603;28;20499;-69
2022/03/05 16:18:50;;;;;;;108.07;51.88;;;;;;;;;;5054583;28;20052;-70
2022/03/05 16:21:15;;;;;;;445.92;243.73;;;;;;;;;;5054479;28;20033;-69
2022/03/05 16:23:43;;;;;;;461.23;257.08;;;;;;;;;;5054496;28;20135;-69
2022/03/05 16:26:12;;;;;;;178.25;91.13;;;;;;;;;;5054738;28;20041;-69
2022/03/05 16:28:41;;;;;;;387.83;183.68;;;;;;;;;;5054572;28;20025;-69
2022/03/05 16:31:11;;;;;;;186.45;92.93;;;;;;;;;;5053883;28;20037;-68
2022/03/05 16:33:37;;;;;;;147.07;67.30;;;;;;;;;;5036669;28;20075;-69